Time;durP1;ratioP1;P1;durP2;ratioP2;P2;SDS_P1;SDS_P2;PMS_P1;PMS_P2;Temp;Humidity;BMP_temperature;BMP_pressure;BME280_temperature;BME280_humidity;BME280_pressure;Samples;Min_cycle;Max_cycle;Signal;HPM_P1;HPM_P2
2022/06/20 00:00:58;;;;;;;8.88;4.43;;;;;;;16.62;83.96;100137.53;5063390;28;20173;-29
2022/06/20 00:03:29;;;;;;;8.45;4.50;;;;;;;16.67;84.48;100142.16;5063757;28;20423;-30
2022/06/20 00:05:55;;;;;;;7.85;4.90;;;;;;;16.66;84.86;100143.25;5063421;28;20059;-29
2022/06/20 00:08:21;;;;;;;8.55;4.50;;;;;;;16.75;84.67;100136.28;5063849;28;20116;-29
2022/06/20 00:10:47;;;;;;;6.10;4.38;;;;;;;16.76;83.62;100124.47;5065385;28;20028;-29
2022/06/20 00:13:23;;;;;;;7.75;4.50;;;;;;;16.93;83.15;100137.00;5063678;28;20545;-29
2022/06/20 00:15:51;;;;;;;6.45;3.88;;;;;;;17.01;81.88;100126.53;5063496;28;20392;-30
2022/06/20 00:18:17;;;;;;;5.95;4.28;;;;;;;17.04;82.02;100130.59;5063497;28;20174;-30
2022/06/20 00:20:42;;;;;;;7.20;4.50;;;;;;;17.12;81.46;100124.75;5064582;28;20525;-31
2022/06/20 00:23:09;;;;;;;6.93;4.90;;;;;;;17.13;81.04;100115.56;5065098;28;20028;-31
2022/06/20 00:25:36;;;;;;;6.75;4.88;;;;;;;17.35;80.60;100123.50;5063349;28;20463;-28
2022/06/20 00:28:02;;;;;;;6.95;5.50;;;;;;;17.38;79.50;100111.38;5063708;28;20032;-29
2022/06/20 00:30:28;;;;;;;8.27;4.82;;;;;;;17.11;81.02;100133.88;5063323;28;20404;-28
2022/06/20 00:32:53;;;;;;;9.00;5.45;;;;;;;17.23;79.31;100114.81;5066375;28;20161;-29
2022/06/20 00:35:19;;;;;;;6.80;5.05;;;;;;;17.16;79.98;100125.84;5067447;28;20032;-36
2022/06/20 00:37:45;;;;;;;9.45;5.32;;;;;;;17.23;79.01;100112.94;5068600;28;20479;-31
2022/06/20 00:40:37;;;;;;;8.65;5.05;;;;;;;17.23;79.88;100118.31;5067204;28;20032;-29
2022/06/20 00:43:05;;;;;;;7.88;5.53;;;;;;;17.24;79.15;100111.88;5068966;28;20136;-28
2022/06/20 00:45:37;;;;;;;8.77;5.15;;;;;;;17.03;79.71;100097.44;5066425;28;20849;-29
2022/06/20 00:48:09;;;;;;;7.20;5.13;;;;;;;16.77;81.54;100109.09;5067170;28;20037;-29
2022/06/20 00:50:35;;;;;;;7.72;5.50;;;;;;;16.75;81.83;100112.06;5066895;28;20075;-35
2022/06/20 00:53:09;;;;;;;8.68;5.03;;;;;;;16.60;83.09;100106.56;5068341;28;20040;-32
2022/06/20 00:55:39;;;;;;;8.40;5.18;;;;;;;16.72;82.58;100109.09;5067130;28;20032;-36
2022/06/20 00:58:27;;;;;;;8.18;5.05;;;;;;;16.81;82.33;100104.84;5068202;28;20070;-32
2022/06/20 01:00:54;;;;;;;8.55;5.05;;;;;;;17.07;79.52;100079.69;5068426;28;20051;-29
2022/06/20 01:03:23;;;;;;;8.40;5.85;;;;;;;17.14;79.10;100101.03;5068378;28;20017;-28
2022/06/20 01:06:10;;;;;;;8.60;6.05;;;;;;;16.98;80.78;100097.44;5066657;28;20036;-28
2022/06/20 01:08:46;;;;;;;8.75;5.25;;;;;;;16.55;82.52;100101.97;5068408;28;20028;-28
2022/06/20 01:11:22;;;;;;;9.70;5.88;;;;;;;16.47;83.25;100097.06;5068110;28;20024;-33
2022/06/20 01:13:48;;;;;;;9.88;5.80;;;;;;;16.50;82.53;100101.09;5066830;28;20024;-32
2022/06/20 01:16:24;;;;;;;7.38;5.40;;;;;;;16.27;83.36;100095.00;5066603;28;20032;-31
2022/06/20 01:18:50;;;;;;;8.25;5.78;;;;;;;16.30;84.00;100105.22;5068234;28;20033;-36
2022/06/20 01:21:21;;;;;;;7.70;4.95;;;;;;;16.40;83.32;100102.63;5066798;28;20037;-34
2022/06/20 01:24:05;;;;;;;6.10;5.30;;;;;;;16.53;82.46;100100.56;5066918;28;20119;-30
2022/06/20 01:26:45;;;;;;;9.05;5.70;;;;;;;16.26;83.95;100104.13;5067666;28;20039;-30
2022/06/20 01:29:12;;;;;;;7.15;5.43;;;;;;;16.35;84.63;100102.59;5066384;28;20559;-28
2022/06/20 01:31:43;;;;;;;6.72;5.45;;;;;;;16.82;82.22;100101.91;5067849;28;20049;-36
2022/06/20 01:34:11;;;;;;;8.73;5.70;;;;;;;16.86;80.81;100077.97;5067997;28;20500;-31
2022/06/20 01:39:24;;;;;;;8.07;6.07;;;;;;;16.50;80.99;100076.88;5067787;28;20043;-32
2022/06/20 01:44:39;;;;;;;7.55;5.63;;;;;;;16.12;83.71;100070.63;5067341;28;20047;-36
2022/06/20 01:47:05;;;;;;;9.20;5.88;;;;;;;16.14;84.06;100087.34;5066118;28;20057;-31
2022/06/20 01:49:33;;;;;;;9.18;6.30;;;;;;;16.55;81.45;100063.44;5067507;28;20480;-32
2022/06/20 01:52:08;;;;;;;8.30;6.22;;;;;;;16.63;81.37;100069.19;5067387;28;20452;-29
2022/06/20 01:54:42;;;;;;;7.75;5.28;;;;;;;15.96;84.21;100081.25;5065983;28;20040;-29
2022/06/20 01:57:10;;;;;;;7.07;5.80;;;;;;;16.10;83.78;100081.66;5065870;28;20072;-31
2022/06/20 01:59:45;;;;;;;9.20;5.82;;;;;;;16.35;82.17;100062.22;5067369;28;20028;-34
2022/06/20 02:02:12;;;;;;;9.65;5.97;;;;;;;16.36;82.96;100085.38;5067614;28;20109;-33
2022/06/20 02:04:38;;;;;;;16.30;6.80;;;;;;;16.60;81.96;100075.06;5065097;28;20039;-33
2022/06/20 02:07:08;;;;;;;7.85;5.38;;;;;;;16.40;80.97;100048.00;5065602;28;20059;-29
2022/06/20 02:09:34;;;;;;;8.65;6.05;;;;;;;16.20;81.95;100045.94;5065683;28;20028;-29
2022/06/20 02:12:02;;;;;;;8.23;5.90;;;;;;;16.07;82.97;100058.75;5065250;28;20033;-29
2022/06/20 02:14:34;;;;;;;7.70;5.80;;;;;;;16.10;82.88;100075.47;5066888;28;20043;-30
2022/06/20 02:17:05;;;;;;;7.72;5.50;;;;;;;15.54;86.23;100052.28;5066676;28;20139;-29
2022/06/20 02:19:34;;;;;;;8.70;5.72;;;;;;;15.61;86.70;100068.22;5065827;28;20042;-30
2022/06/20 02:22:04;;;;;;;7.28;4.47;;;;;;;15.30;86.97;100040.19;5065528;28;20028;-28
2022/06/20 02:24:36;;;;;;;7.10;3.67;;;;;;;15.36;87.98;100066.84;5065462;28;20094;-30
2022/06/20 02:27:04;;;;;;;7.75;3.78;;;;;;;15.91;84.64;100066.94;5065388;28;20028;-30
2022/06/20 02:29:31;;;;;;;9.05;4.50;;;;;;;15.59;86.30;100070.34;5065003;28;20033;-29
2022/06/20 02:32:06;;;;;;;6.55;3.58;;;;;;;15.16;88.15;100077.34;5065275;28;20036;-28
2022/06/20 02:34:32;;;;;;;9.63;3.05;;;;;;;14.68;89.30;100060.84;5065126;28;20040;-30
2022/06/20 02:37:02;;;;;;;9.88;3.38;;;;;;;14.73;90.17;100052.06;5066342;28;20033;-32
2022/06/20 02:39:29;;;;;;;6.80;3.63;;;;;;;15.35;87.48;100049.13;5066445;28;20439;-29
2022/06/20 02:42:01;;;;;;;6.85;4.28;;;;;;;15.61;87.45;100058.28;5064913;28;20119;-32
2022/06/20 02:44:28;;;;;;;7.30;4.50;;;;;;;15.66;87.72;100063.72;5066109;28;20071;-30
2022/06/20 02:46:55;;;;;;;7.78;4.45;;;;;;;15.38;89.10;100053.16;5064574;28;20147;-30
2022/06/20 02:49:25;;;;;;;6.68;5.35;;;;;;;15.39;87.99;100044.06;5064973;28;20794;-28
2022/06/20 02:51:54;;;;;;;9.23;6.00;;;;;;;15.56;87.14;100063.59;5066296;28;20025;-30
2022/06/20 02:54:24;;;;;;;7.68;5.60;;;;;;;15.72;86.45;100059.22;5064400;28;20017;-31
2022/06/20 02:56:58;;;;;;;8.45;5.82;;;;;;;15.78;85.50;100041.28;5065005;28;20035;-28
2022/06/20 02:59:29;;;;;;;12.07;6.63;;;;;;;15.90;86.00;100060.75;5066346;28;20029;-29
2022/06/20 03:02:02;;;;;;;8.75;5.65;;;;;;;15.99;83.80;100061.91;5064877;28;20032;-29
2022/06/20 03:04:31;;;;;;;7.20;4.97;;;;;;;15.79;85.53;100059.03;5066001;28;20028;-31
2022/06/20 03:07:02;;;;;;;8.25;5.28;;;;;;;15.33;88.10;100061.19;5064831;28;20024;-31
2022/06/20 03:09:32;;;;;;;7.93;5.53;;;;;;;15.10;90.30;100067.59;5065029;28;20036;-29
2022/06/20 03:12:00;;;;;;;9.40;4.93;;;;;;;15.04;90.16;100064.06;5066692;28;20036;-30
2022/06/20 03:14:36;;;;;;;6.75;5.18;;;;;;;15.14;90.17;100061.50;5064807;28;20025;-29
2022/06/20 03:17:03;;;;;;;7.47;4.15;;;;;;;15.05;88.70;100062.97;5064955;28;20458;-35
2022/06/20 03:19:32;;;;;;;9.93;4.97;;;;;;;15.07;88.71;100055.47;5064386;28;20034;-37
2022/06/20 03:22:01;;;;;;;7.18;4.93;;;;;;;15.58;86.43;100066.84;5064570;28;20044;-35
2022/06/20 03:24:28;;;;;;;7.25;5.07;;;;;;;15.59;86.92;100075.72;5064218;28;20035;-29
2022/06/20 03:26:55;;;;;;;7.90;5.55;;;;;;;15.66;86.72;100068.28;5064428;28;20129;-28
2022/06/20 03:29:25;;;;;;;11.02;5.70;;;;;;;15.57;86.07;100051.78;5064303;28;20032;-28
2022/06/20 03:31:51;;;;;;;8.00;4.82;;;;;;;15.61;85.63;100066.34;5064168;28;20024;-31
2022/06/20 03:34:17;;;;;;;6.82;5.25;;;;;;;15.49;85.30;100049.56;5065353;28;20031;-30
2022/06/20 03:36:46;;;;;;;11.20;5.28;;;;;;;15.64;85.17;100063.16;5063955;28;20041;-30
2022/06/20 03:39:13;;;;;;;8.98;5.43;;;;;;;15.65;86.12;100061.25;5065762;28;20016;-28
2022/06/20 03:41:39;;;;;;;8.15;5.57;;;;;;;15.73;85.92;100060.03;5063751;28;20160;-28
2022/06/20 03:44:24;;;;;;;8.90;5.72;;;;;;;15.91;85.83;100070.44;5065493;28;20063;-29
2022/06/20 03:47:07;;;;;;;9.20;5.43;;;;;;;15.86;85.57;100065.03;5082031;28;20067;-32
2022/06/20 03:49:45;;;;;;;11.20;5.63;;;;;;;15.98;84.96;100068.38;5067660;28;20028;-29
2022/06/20 03:52:17;;;;;;;10.37;5.97;;;;;;;15.84;85.66;100057.22;5067653;28;20089;-32
2022/06/20 03:54:57;;;;;;;9.50;6.28;;;;;;;15.83;86.82;100065.53;5085510;28;20066;-28
2022/06/20 03:57:29;;;;;;;11.52;6.43;;;;;;;15.68;89.53;100060.78;5067561;28;20032;-29
2022/06/20 04:00:08;;;;;;;10.65;6.97;;;;;;;16.06;88.56;100067.91;5067335;28;20028;-30
2022/06/20 04:02:39;;;;;;;9.77;6.95;;;;;;;16.26;88.36;100063.75;5085498;28;20554;-29
2022/06/20 04:05:12;;;;;;;12.20;7.50;;;;;;;16.51;86.68;100065.03;5067138;28;20028;-31
2022/06/20 04:07:48;;;;;;;8.38;6.53;;;;;;;16.64;86.14;100053.81;5069949;28;20032;-32
2022/06/20 04:11:01;;;;;;;10.15;7.05;;;;;;;16.42;87.61;100035.91;5071528;28;20028;-33
2022/06/20 04:13:42;;;;;;;11.93;7.15;;;;;;;16.79;85.84;100051.22;5089637;28;20024;-30
2022/06/20 04:16:18;;;;;;;9.80;6.95;;;;;;;16.69;85.99;100040.38;5071273;28;20580;-29
2022/06/20 04:19:02;;;;;;;9.98;6.47;;;;;;;16.80;85.64;100038.59;5071254;28;20613;-28
2022/06/20 04:21:45;;;;;;;12.85;7.15;;;;;;;16.92;85.33;100057.25;5071144;28;20039;-29
2022/06/20 04:24:20;;;;;;;9.38;6.90;;;;;;;17.07;85.49;100062.72;5070982;28;20523;-29
2022/06/20 04:26:54;;;;;;;10.52;6.63;;;;;;;17.00;86.37;100065.66;5089196;28;20032;-31
2022/06/20 04:29:42;;;;;;;8.85;6.63;;;;;;;17.15;83.59;100067.63;5071069;28;20116;-28
2022/06/20 04:32:43;;;;;;;8.10;6.60;;;;;;;17.26;83.12;100066.59;5071101;28;20036;-30
2022/06/20 04:35:24;;;;;;;9.55;6.60;;;;;;;17.34;81.96;100070.66;5071014;28;20572;-29
2022/06/20 04:37:55;;;;;;;10.68;7.53;;;;;;;17.35;82.78;100066.09;5070807;28;20517;-32
2022/06/20 04:40:43;;;;;;;8.05;6.55;;;;;;;17.42;83.04;100058.56;5070393;28;20024;-31
2022/06/20 04:43:18;;;;;;;8.52;6.47;;;;;;;17.63;81.67;100064.81;5089016;28;20036;-29
2022/06/20 04:46:13;;;;;;;10.23;6.85;;;;;;;17.71;81.09;100061.59;5088911;28;20091;-31
2022/06/20 04:48:39;;;;;;;10.13;7.00;;;;;;;17.56;81.62;100059.69;5070343;28;20873;-31
2022/06/20 04:51:12;;;;;;;9.00;6.15;;;;;;;17.61;80.51;100042.69;5088803;28;20040;-29
2022/06/20 04:53:42;;;;;;;10.23;6.63;;;;;;;17.49;81.84;100053.75;5070478;28;20039;-29
2022/06/20 04:56:11;;;;;;;9.45;5.82;;;;;;;17.54;80.73;100039.47;5070523;28;20042;-33
2022/06/20 04:58:48;;;;;;;8.02;6.05;;;;;;;17.78;80.10;100045.19;5088761;28;20747;-30
2022/06/20 05:01:16;;;;;;;7.18;5.30;;;;;;;17.80;77.14;100051.13;5070676;28;20121;-31
2022/06/20 05:03:45;;;;;;;8.68;5.35;;;;;;;17.64;78.05;100024.09;5070282;28;20035;-31
2022/06/20 05:06:27;;;;;;;10.75;6.05;;;;;;;17.75;79.07;100030.31;5070909;28;20024;-29
2022/06/20 05:08:58;;;;;;;6.97;5.22;;;;;;;17.90;77.75;100037.69;5070588;28;20157;-29
2022/06/20 05:11:29;;;;;;;8.00;5.40;;;;;;;17.99;77.63;100036.06;5070411;28;20092;-28
2022/06/20 05:14:09;;;;;;;9.10;6.00;;;;;;;18.21;77.75;100048.50;5070239;28;20043;-30
2022/06/20 05:16:42;;;;;;;9.55;5.75;;;;;;;18.40;75.90;100025.25;5088571;28;20033;-31
2022/06/20 05:19:16;;;;;;;8.52;5.45;;;;;;;18.55;74.35;100037.09;5088166;28;20016;-31
2022/06/20 05:21:45;;;;;;;7.43;4.85;;;;;;;18.51;74.34;100034.16;5070199;28;20027;-28
2022/06/20 05:24:16;;;;;;;7.63;5.45;;;;;;;18.47;74.88;100038.50;5070108;28;20119;-31
2022/06/20 05:26:44;;;;;;;7.85;5.45;;;;;;;18.56;74.67;100036.03;5069562;28;20028;-30
2022/06/20 05:29:32;;;;;;;7.93;5.30;;;;;;;18.98;74.49;100037.56;5069745;28;20088;-29
2022/06/20 05:32:02;;;;;;;8.25;5.07;;;;;;;18.93;71.99;100024.09;5088327;28;20024;-33
2022/06/20 05:34:44;;;;;;;8.13;5.00;;;;;;;18.81;71.44;100036.00;5069597;28;20051;-29
2022/06/20 05:37:45;;;;;;;5.85;4.45;;;;;;;19.08;71.56;100051.06;5087896;28;20028;-31
2022/06/20 05:40:10;;;;;;;6.63;4.90;;;;;;;19.15;70.68;100045.38;5088322;28;20063;-30
2022/06/20 05:42:36;;;;;;;6.00;4.20;;;;;;;19.22;70.01;100025.03;5087757;28;20070;-28
2022/06/20 05:45:14;;;;;;;6.47;4.35;;;;;;;19.41;69.13;100037.94;5069398;28;20558;-29
2022/06/20 05:47:42;;;;;;;6.00;4.18;;;;;;;19.33;69.71;100027.69;5087714;28;20085;-30
2022/06/20 05:50:18;;;;;;;8.20;4.10;;;;;;;19.62;67.93;100027.84;5069743;28;20055;-30
2022/06/20 05:52:44;;;;;;;6.95;4.32;;;;;;;19.56;68.06;100010.81;5069182;28;20487;-29
2022/06/20 05:55:21;;;;;;;8.23;4.38;;;;;;;19.80;68.18;100031.81;5069392;28;20043;-30
2022/06/20 05:57:50;;;;;;;6.60;4.60;;;;;;;19.99;66.80;100023.81;5069182;28;20038;-32
2022/06/20 06:00:21;;;;;;;40.20;6.60;;;;;;;20.21;65.68;100034.22;5087448;28;20040;-29
2022/06/20 06:02:58;;;;;;;6.28;4.38;;;;;;;20.07;65.20;100034.84;5087769;28;20510;-33
2022/06/20 06:05:43;;;;;;;8.40;4.50;;;;;;;20.16;67.45;100034.25;5087573;28;20047;-31
2022/06/20 06:08:22;;;;;;;6.97;4.82;;;;;;;20.47;66.63;100026.66;5069164;28;20058;-32
2022/06/20 06:10:56;;;;;;;6.40;4.18;;;;;;;20.61;64.41;100032.22;5069149;28;20023;-29
2022/06/20 06:13:27;;;;;;;9.20;4.32;;;;;;;20.70;64.14;100030.53;5069045;28;20055;-31
2022/06/20 06:18:56;;;;;;;6.63;4.03;;;;;;;20.77;61.75;100012.00;5086885;28;20039;-33
2022/06/20 06:21:21;;;;;;;5.88;3.83;;;;;;;20.84;61.78;100006.25;5068859;28;20021;-31
2022/06/20 06:23:48;;;;;;;6.13;3.88;;;;;;;21.19;62.88;100018.56;5068879;28;20031;-32
2022/06/20 06:26:17;;;;;;;5.65;4.25;;;;;;;21.43;61.50;100017.75;5068733;28;20035;-30
2022/06/20 06:28:44;;;;;;;6.68;3.95;;;;;;;21.40;60.54;99999.31;5067813;28;20028;-34
2022/06/20 06:31:15;;;;;;;;;;;;;;;21.44;60.07;100022.88;5086876;28;20036;-29
2022/06/20 06:33:50;;;;;;;5.22;3.80;;;;;;;21.31;60.21;100006.47;5086906;28;19908;-32
2022/06/20 06:36:35;;;;;;;6.13;4.65;;;;;;;21.34;61.00;100014.06;5068480;28;20046;-30
2022/06/20 06:39:17;;;;;;;6.18;4.53;;;;;;;21.59;58.94;100007.47;5068552;28;20034;-29
2022/06/20 06:41:51;;;;;;;6.35;4.40;;;;;;;21.77;59.44;100003.16;5068319;28;20040;-32
2022/06/20 06:44:31;;;;;;;5.93;4.38;;;;;;;21.97;60.02;100008.25;5086736;28;20055;-33
2022/06/20 06:46:57;;;;;;;5.57;3.85;;;;;;;22.17;57.88;99987.28;5068389;28;20052;-30
2022/06/20 06:49:32;;;;;;;5.43;3.90;;;;;;;22.44;58.17;100000.97;5068621;28;20411;-34
2022/06/20 06:52:13;;;;;;;10.73;4.30;;;;;;;;;;5068636;28;20912;-34
2022/06/20 06:54:41;;;;;;;6.88;4.25;;;;;;;22.67;60.00;99998.38;5086454;28;20047;-33
2022/06/20 06:57:10;;;;;;;5.82;3.88;;;;;;;22.79;56.95;99990.50;5087215;28;20032;-31
2022/06/20 06:59:43;;;;;;;7.43;4.18;;;;;;;22.74;56.09;99996.06;5087002;28;20027;-32
2022/06/20 07:02:21;;;;;;;7.60;4.05;;;;;;;22.81;55.77;99980.16;5086944;28;20100;-30
2022/06/20 07:05:08;;;;;;;6.72;3.90;;;;;;;22.79;56.95;99981.56;5067927;28;20051;-29
2022/06/20 07:07:49;;;;;;;5.63;4.13;;;;;;;23.00;55.59;99979.22;5086593;28;20156;-29
2022/06/20 07:10:31;;;;;;;5.63;3.90;;;;;;;23.17;55.63;99974.00;5068303;28;20124;-31
2022/06/20 07:13:05;;;;;;;6.25;3.78;;;;;;;23.16;54.77;99966.13;5086128;28;20032;-31
2022/06/20 07:15:34;;;;;;;5.40;3.90;;;;;;;23.29;53.93;99978.09;5068264;28;20028;-29
2022/06/20 07:18:03;;;;;;;5.07;3.97;;;;;;;23.43;53.99;99966.06;5067807;28;20040;-29
2022/06/20 07:20:33;;;;;;;5.80;3.80;;;;;;;23.76;53.63;99973.19;5085814;28;20036;-36
2022/06/20 07:23:04;;;;;;;6.63;4.20;;;;;;;24.03;51.79;99975.84;5067598;28;20028;-32
2022/06/20 07:25:35;;;;;;;6.57;3.85;;;;;;;24.02;52.84;99970.69;5085777;28;20032;-30
2022/06/20 07:28:19;;;;;;;6.22;3.97;;;;;;;24.19;50.87;99969.97;5086078;28;20480;-30
2022/06/20 07:30:57;;;;;;;6.95;4.03;;;;;;;24.22;50.54;99972.88;5085763;28;20025;-31
2022/06/20 07:33:29;;;;;;;6.53;3.95;;;;;;;24.12;52.83;99966.91;5067329;28;20035;-29
2022/06/20 07:35:58;;;;;;;7.68;3.88;;;;;;;24.06;51.51;99967.00;5067704;28;20105;-30
2022/06/20 07:38:59;;;;;;;5.35;3.65;;;;;;;24.49;49.82;99962.91;5085826;28;20468;-35
2022/06/20 07:42:16;;;;;;;5.13;3.72;;;;;;;24.81;50.86;99959.03;5067340;28;20047;-33
2022/06/20 07:44:57;;;;;;;6.85;3.90;;;;;;;24.74;49.60;99958.69;5033476;28;20941;-30
2022/06/20 07:47:35;;;;;;;5.97;3.88;;;;;;;25.15;49.95;99957.50;5085682;28;20044;-32
2022/06/20 07:50:09;;;;;;;;;;;;;;;25.31;50.12;99959.78;5067966;28;20028;-31
2022/06/20 07:52:42;;;;;;;3.90;3.47;;;;;;;25.15;48.49;99932.97;5085290;28;20486;-29
2022/06/20 07:55:13;;;;;;;6.63;3.90;;;;;;;25.23;48.40;99958.66;5067329;28;20024;-34
2022/06/20 07:57:46;;;;;;;5.38;3.63;;;;;;;25.34;48.68;99934.59;5067577;28;20036;-29
2022/06/20 08:00:22;;;;;;;4.40;3.60;;;;;;;25.41;48.06;99937.63;5067248;28;20024;-30
2022/06/20 08:03:00;;;;;;;5.88;3.33;;;;;;;25.65;48.22;99942.59;5067284;28;20055;-33
2022/06/20 08:05:28;;;;;;;4.15;3.65;;;;;;;25.91;48.11;99934.41;5067318;28;20031;-32
2022/06/20 08:08:09;;;;;;;4.50;3.03;;;;;;;26.01;47.92;99925.88;5085789;28;20650;-29
2022/06/20 08:10:46;;;;;;;4.93;3.30;;;;;;;26.25;47.51;99927.22;5067108;28;20118;-30
2022/06/20 08:13:29;;;;;;;4.97;3.28;;;;;;;26.41;46.87;99916.53;5067269;28;20084;-30
2022/06/20 08:16:14;;;;;;;4.88;3.22;;;;;;;26.83;45.77;99930.34;5085708;28;20831;-31
2022/06/20 08:18:39;;;;;;;5.40;3.50;;;;;;;26.25;46.30;99908.06;5066939;28;20032;-29
2022/06/20 08:21:10;;;;;;;6.82;3.42;;;;;;;26.23;45.70;99918.53;5067087;28;20172;-34
2022/06/20 08:23:48;;;;;;;5.53;3.15;;;;;;;26.50;50.01;99909.13;5066961;28;20027;-35
2022/06/20 08:26:24;;;;;;;4.32;3.15;;;;;;;26.58;46.30;99908.28;5085140;28;20031;-32
2022/06/20 08:28:54;;;;;;;6.03;3.42;;;;;;;26.67;45.28;99921.91;5066923;28;20028;-32
2022/06/20 08:31:27;;;;;;;5.60;3.00;;;;;;;26.86;46.07;99908.56;5067055;28;20043;-30
2022/06/20 08:33:56;;;;;;;5.60;3.20;;;;;;;27.29;42.69;99900.41;5066737;28;20031;-31
2022/06/20 08:36:23;;;;;;;4.28;3.00;;;;;;;27.10;41.96;99918.09;5066864;28;20660;-29
2022/06/20 08:39:12;;;;;;;5.00;2.90;;;;;;;27.42;43.42;99918.47;5067006;28;20032;-36
2022/06/20 08:41:50;;;;;;;5.30;3.03;;;;;;;27.56;42.10;99916.25;5066881;28;20495;-31
2022/06/20 08:44:31;;;;;;;4.22;3.00;;;;;;;27.54;39.24;99890.34;5066719;28;20040;-33
2022/06/20 08:47:02;;;;;;;2.95;2.20;;;;;;;27.64;37.08;99909.94;5066560;28;20056;-32
2022/06/20 08:49:40;;;;;;;5.00;2.80;;;;;;;27.42;39.85;99907.53;5085164;28;20028;-31
2022/06/20 08:52:30;;;;;;;4.00;2.60;;;;;;;27.67;41.76;99902.16;5067411;28;20081;-34
2022/06/20 08:55:33;;;;;;;4.43;2.72;;;;;;;27.63;41.05;99913.00;5088616;28;20639;-30
2022/06/20 08:58:16;;;;;;;4.55;2.70;;;;;;;27.54;40.36;99888.41;5070280;28;20459;-30
2022/06/20 09:01:03;;;;;;;4.68;2.63;;;;;;;27.84;39.69;99904.72;5069872;28;20844;-31
2022/06/20 09:04:06;;;;;;;4.38;2.80;;;;;;;28.01;39.17;99907.31;5069865;28;20092;-33
2022/06/20 09:06:43;;;;;;;4.10;2.55;;;;;;;28.33;40.26;99907.56;5088288;28;20407;-30
2022/06/20 09:09:09;;;;;;;3.55;2.20;;;;;;;28.31;38.96;99909.03;5088361;28;20499;-29
2022/06/20 09:11:55;;;;;;;4.00;2.60;;;;;;;28.70;38.09;99906.78;5088171;28;20089;-33
2022/06/20 09:14:45;;;;;;;5.23;2.50;;;;;;;28.71;34.90;99908.34;5088733;28;20024;-33
2022/06/20 09:17:43;;;;;;;2.45;2.05;;;;;;;29.02;36.06;99894.03;5088164;28;20032;-29
2022/06/20 09:20:11;;;;;;;3.15;2.33;;;;;;;29.21;35.07;99902.44;5069597;28;20399;-29
2022/06/20 09:23:21;;;;;;;3.80;1.90;;;;;;;28.89;36.80;99889.69;5087707;28;20020;-30
2022/06/20 09:26:03;;;;;;;3.00;2.17;;;;;;;28.67;35.44;99882.75;5008214;28;20029;-33
2022/06/20 09:28:38;;;;;;;2.63;1.92;;;;;;;28.66;33.17;99887.44;5063025;28;20040;-39
2022/06/20 09:31:29;;;;;;;6.07;2.00;;;;;;;29.24;34.05;99879.78;5069443;28;20024;-32
2022/06/20 09:34:19;;;;;;;6.70;2.47;;;;;;;29.24;32.36;99884.50;5088008;28;20035;-36
2022/06/20 09:36:50;;;;;;;3.33;1.77;;;;;;;29.22;34.92;99878.56;5087829;28;20757;-31
2022/06/20 09:39:25;;;;;;;5.47;2.22;;;;;;;29.21;34.13;99874.97;5087773;28;20556;-30
2022/06/20 09:42:07;;;;;;;3.00;1.85;;;;;;;29.07;33.15;99869.06;5087623;28;20024;-31
2022/06/20 09:45:09;;;;;;;4.22;1.80;;;;;;;29.39;29.48;99880.19;5087269;28;20032;-34
2022/06/20 09:47:41;;;;;;;4.72;1.77;;;;;;;29.52;30.98;99873.47;5066858;28;20133;-34
2022/06/20 09:50:12;;;;;;;4.88;1.70;;;;;;;29.80;30.42;99880.91;5069288;28;20546;-36
2022/06/20 09:53:12;;;;;;;3.30;1.80;;;;;;;29.92;31.55;99880.84;5087502;28;20088;-30
2022/06/20 09:56:04;;;;;;;4.88;1.70;;;;;;;29.72;30.62;99863.44;5087366;28;20466;-35
2022/06/20 09:58:38;;;;;;;1.95;1.77;;;;;;;29.78;27.98;99866.72;5068972;28;20035;-36
2022/06/20 10:01:16;;;;;;;3.88;1.80;;;;;;;29.85;28.52;99866.88;5068969;28;20027;-29
2022/06/20 10:03:53;;;;;;;3.75;1.65;;;;;;;29.67;29.19;99873.84;5068641;28;20039;-34
2022/06/20 10:06:57;;;;;;;2.78;1.60;;;;;;;29.97;32.00;99871.50;5087252;28;20028;-30
2022/06/20 10:09:59;;;;;;;1.98;1.50;;;;;;;30.00;28.92;99866.13;5068960;28;20032;-36
2022/06/20 10:12:37;;;;;;;4.43;2.08;;;;;;;30.58;29.26;99867.50;5087434;28;20185;-31
2022/06/20 10:15:05;;;;;;;5.30;2.50;;;;;;;30.76;29.83;99854.91;5068642;28;20423;-37
2022/06/20 10:17:52;;;;;;;4.10;2.20;;;;;;;30.97;30.07;99857.34;5087423;28;20020;-31
2022/06/20 10:20:38;;;;;;;5.47;2.13;;;;;;;30.93;28.84;99855.69;5068557;28;20036;-37
2022/06/20 10:23:33;;;;;;;3.38;2.00;;;;;;;31.66;29.73;99859.47;5068256;28;20503;-40
2022/06/20 10:26:16;;;;;;;4.70;2.13;;;;;;;31.27;30.32;99847.72;5014120;28;20042;-32
2022/06/20 10:29:16;;;;;;;4.15;2.28;;;;;;;31.31;28.84;99843.84;5068380;28;20039;-30
2022/06/20 10:32:00;;;;;;;4.72;2.20;;;;;;;30.87;28.87;99846.09;5068632;28;20028;-33
2022/06/20 10:34:39;;;;;;;6.38;2.30;;;;;;;31.29;30.03;99839.88;5068723;28;20032;-30
2022/06/20 10:37:23;;;;;;;4.40;1.88;;;;;;;31.71;27.47;99836.31;5068513;28;20132;-37
2022/06/20 10:39:56;;;;;;;2.63;2.20;;;;;;;32.26;27.50;99842.38;5068962;28;20751;-32
2022/06/20 10:43:10;;;;;;;2.25;1.80;;;;;;;32.41;28.20;99841.41;5069000;28;20040;-30
2022/06/20 10:45:55;;;;;;;3.88;2.22;;;;;;;32.40;28.42;99842.56;5086072;28;20056;-30
2022/06/20 10:48:42;;;;;;;3.45;2.00;;;;;;;32.17;26.57;99842.63;5086882;28;20028;-30
2022/06/20 10:51:26;;;;;;;4.38;2.03;;;;;;;32.10;29.48;99833.44;5086931;28;20043;-35
2022/06/20 10:54:14;;;;;;;3.83;1.83;;;;;;;31.93;27.87;99824.47;5067906;28;20034;-30
2022/06/20 10:56:51;;;;;;;2.90;2.10;;;;;;;32.23;27.85;99821.84;5068026;28;20043;-29
2022/06/20 10:59:36;;;;;;;4.03;2.08;;;;;;;32.17;27.25;99817.81;5086291;28;20663;-31
2022/06/20 11:02:43;;;;;;;4.45;2.13;;;;;;;31.90;27.89;99788.59;5086141;28;20036;-30
2022/06/20 11:05:18;;;;;;;8.90;2.22;;;;;;;32.44;28.46;99810.28;5085565;28;20180;-38
2022/06/20 11:08:04;;;;;;;3.10;2.00;;;;;;;32.73;26.02;99805.19;5067885;28;20039;-35
2022/06/20 11:10:42;;;;;;;3.38;2.08;;;;;;;32.38;26.86;99811.78;5067457;28;20097;-37
2022/06/20 11:13:38;;;;;;;3.58;2.17;;;;;;;32.04;27.15;99808.16;5067786;28;20057;-31
2022/06/20 11:16:20;;;;;;;2.83;1.87;;;;;;;32.21;27.28;99806.81;5085863;28;20024;-32
2022/06/20 11:19:13;;;;;;;2.88;2.08;;;;;;;32.70;26.45;99800.44;5067151;28;20361;-34
2022/06/20 11:21:45;;;;;;;4.53;1.70;;;;;;;32.83;26.51;99784.41;5067798;28;20071;-33
2022/06/20 11:24:49;;;;;;;2.72;2.08;;;;;;;32.97;26.82;99794.81;5067712;28;20034;-31
2022/06/20 11:27:34;;;;;;;3.88;2.08;;;;;;;33.10;28.62;99778.81;5085585;28;20051;-32
2022/06/20 11:30:15;;;;;;;4.35;2.08;;;;;;;33.23;25.57;99791.97;5067458;28;20139;-34
2022/06/20 11:32:46;;;;;;;2.38;1.70;;;;;;;33.45;24.67;99797.72;5085413;28;20515;-35
2022/06/20 11:35:24;;;;;;;3.00;1.90;;;;;;;33.29;25.95;99797.19;5085638;28;20035;-34
2022/06/20 11:38:23;;;;;;;3.03;2.00;;;;;;;33.14;24.47;99791.50;5067561;28;20083;-32
2022/06/20 11:41:01;;;;;;;2.90;1.73;;;;;;;32.85;25.04;99779.28;5085504;28;20036;-33
2022/06/20 11:43:44;;;;;;;3.20;1.90;;;;;;;33.06;25.50;99769.66;5085689;28;20020;-31
2022/06/20 11:46:54;;;;;;;2.70;2.00;;;;;;;33.08;25.98;99779.19;5085239;28;20048;-31
2022/06/20 11:49:52;;;;;;;2.95;1.90;;;;;;;32.59;25.52;99780.16;5085663;28;20475;-35
2022/06/20 11:52:25;;;;;;;3.13;2.22;;;;;;;32.54;25.58;99777.72;5012291;28;20044;-33
2022/06/20 11:54:59;;;;;;;4.78;2.03;;;;;;;32.13;26.47;99772.81;5066950;28;20028;-32
2022/06/20 11:57:46;;;;;;;4.47;2.08;;;;;;;32.29;25.31;99756.09;5067097;28;20867;-35
2022/06/20 12:00:22;;;;;;;3.45;1.92;;;;;;;32.91;25.53;99760.44;5066821;28;20035;-31
2022/06/20 12:03:00;;;;;;;3.55;2.00;;;;;;;32.61;25.38;99759.31;5085178;28;20064;-30
2022/06/20 12:05:43;;;;;;;2.55;2.10;;;;;;;32.99;24.45;99762.09;5085595;28;20503;-32
2022/06/20 12:08:42;;;;;;;3.47;2.10;;;;;;;32.42;25.33;99768.47;5085097;28;20028;-29
2022/06/20 12:11:15;;;;;;;4.53;1.80;;;;;;;32.76;24.24;99760.25;5084437;28;20128;-36
2022/06/20 12:14:18;;;;;;;5.38;2.00;;;;;;;33.10;22.96;99756.69;5066980;28;20035;-36
2022/06/20 12:17:31;;;;;;;3.30;2.30;;;;;;;33.89;23.22;99757.41;5084823;28;20028;-31
2022/06/20 12:23:36;;;;;;;2.80;1.98;;;;;;;34.12;24.19;99740.56;5002283;28;20037;-31
2022/06/20 12:26:29;;;;;;;2.13;1.80;;;;;;;33.10;25.49;99729.06;5084780;28;20757;-30